Tiempo atmosférico en la estación meteorológica de La Vall de Bianya, Girona (440 m.)



Fecha
DESCASC
Temp. máxima en grados centígrados (hora)
DESCASC
Temp. mínima en grados centígrados (hora)
DESCASC
Temp. media en grados centígrados
DESCASC
Racha de viento máxima en m/sg (hora)
DESCASC
Velocidad máxima media en intervalos de 10 minutos(hora)
DESCASC
Precipitaciones diarias en mm
DESCASC
Precipitaciones de 00:00 a 06:00 en mm
DESCASC
Precipitaciones de 06:00 a 12:00 en mm
DESCASC
Precipitaciones de 12:00 a 18:00 en mm
DESCASC
Precipitaciones de 18:00 a 24:00 en mm
DESCASC
24-05-2020 24.4 (19:10) 16.1 (06:40) 20.3 4.72 (04:40) 2.22 (04:40) 0 0 0 0 0
23-05-2020 27.1 (14:00) 12.2 (06:40) 19.7 8.89 (15:40) 5 (15:40) 0 0 0 0 0
22-05-2020 30.3 (15:10) 12.2 (06:30) 21.2 8.33 (16:10) 4.17 (16:00) 0 0 0 0 0
21-05-2020 30.7 (14:20) 10.5 (00:00) 20.6 8.61 (16:00) 4.44 (16:20) 0 0 0 0 0
20-05-2020 29.9 (15:20) 8.9 (00:00) 19.4 6.11 (13:20) 2.5 (13:30) 0 0 0 0 0
19-05-2020 29.9 (16:20) 7.9 (00:00) 18.9 7.22 (18:00) 3.33 (18:00) 0 0 0 0 0
18-05-2020 26.9 (17:40) 7.1 (00:00) 17 6.39 (13:30) 3.33 (13:30) 0 0 0 0 0
17-05-2020 24.2 (16:10) 11 (00:00) 17.6 7.22 (16:30) 3.33 (16:30) 0 0 0 0 0
16-05-2020 21.8 (17:20) 10.8 (00:00) 16.3 7.5 (00:40) 3.33 (00:40) 2.4 0 1.8 0 0.6
15-05-2020 20.9 (14:10) 9.5 (00:00) 15.2 8.06 (17:00) 4.17 (16:40) 0.2 0 0.2 0 0
14-05-2020 19.2 (11:10) 11.1 (00:00) 15.2 6.94 (12:40) 3.33 (12:40) 11.8 0 0 8.6 3.2
13-05-2020 24.4 (15:30) 12.7 (00:00) 18.5 9.72 (13:50) 5 (13:40) 3.8 2 1.8 0 0
12-05-2020 20.5 (14:30) 10.2 (00:00) 15.3 9.72 (16:00) 5.28 (15:00) 0 0 0 0 0
11-05-2020 20.5 (13:50) 9.2 (00:00) 14.8 10.28 (13:40) 4.72 (12:50) 0.8 0.6 0 0.2 0
10-05-2020 18.1 (16:30) 11.8 (00:00) 15 7.5 (21:30) 3.89 (21:30) 42.2 0.8 16.6 10.6 14.2
09-05-2020 20.3 (17:30) 8.8 (00:00) 14.5 5.83 (13:10) 3.06 (18:00) 0 0 0 0 0
08-05-2020 27.6 (15:30) 10.1 (00:00) 18.9 8.61 (17:30) 3.61 (17:30) 0 0 0 0 0
07-05-2020 25.1 (15:00) 12.7 (00:00) 18.9 8.33 (14:10) 4.17 (14:10) 0 0 0 0 0
06-05-2020 27.4 (16:30) 11.2 (00:00) 19.3 6.94 (14:20) 3.61 (17:10) 0 0 0 0 0
05-05-2020 24.7 (13:50) 14 (00:00) 19.4 6.39 (10:40) 3.33 (14:10) 0 0 0 0 0
04-05-2020 28.8 (18:30) 10.6 (00:00) 19.7 7.22 (14:40) 4.44 (14:40) 0 0 0 0 0
03-05-2020 25.9 (15:50) 10.7 (00:00) 18.3 9.17 (17:40) 5 (16:50) 0 0 0 0 0
02-05-2020 24.4 (15:50) 10.8 (00:00) 17.6 8.06 (13:40) 4.17 (13:40) 0.6 0 0.2 0 0.4
01-05-2020 26.3 (14:00) 7.5 (00:00) 16.9 7.78 (14:40) 3.06 (14:40) 3.6 0 0 3.6 0
30-04-2020 23.6 (14:20) 9.9 (00:00) 16.8 9.72 (04:50) 5.83 (04:50) 0 0 0 0 0
29-04-2020 22.3 (18:00) 5.8 (00:00) 14 8.61 (18:40) 4.17 (19:00) 0 0 0 0 0
28-04-2020 19.8 (15:40) 9.6 (00:00) 14.7 9.72 (17:20) 4.44 (17:00) 0.6 0.6 0 0 0

Gráficas

Temp. máximas Temp. mínimas Temp. medias Precipitaciones Rachas de viento máximas Velocidades máximas media en intervalos de 10 minutos

Datos horarios

Fecha y hora oficial Temperatura (ºC) Velocidad del viento (km/h) Dirección del viento Racha (km/h) Dirección de racha Precipitación (mm) Presión (hPa) Tendencia (hPa) Humedad (%)
2020-05-27 23:00:00 17.9 3 Sudeste 9 Sudeste 0 -- -- 72
2020-05-27 22:00:00 18 3 Sudeste 8 Este 0 -- -- 68
2020-05-27 21:00:00 19.8 4 Nordeste 18 Nordeste 0 -- -- 58
2020-05-27 20:00:00 21.1 9 Este 24 Nordeste 0 -- -- 56
2020-05-27 19:00:00 23 10 Nordeste 21 Este 0 -- -- 54
2020-05-27 18:00:00 24.2 8 Este 27 Este 0 -- -- 56
2020-05-27 17:00:00 25.4 10 Este 26 Este 0 -- -- 50
2020-05-27 16:00:00 26.7 14 Nordeste 25 Nordeste 0 -- -- 40
2020-05-27 15:00:00 26.7 9 Este 23 Este 0 -- -- 40
2020-05-27 14:00:00 26.6 8 Nordeste 22 Este 0 -- -- 44
2020-05-27 13:00:00 25.7 8 Nordeste 18 Este 0 -- -- 46
2020-05-27 12:00:00 24.8 7 Este 18 Nordeste 0 -- -- 47
2020-05-27 11:00:00 23.9 2 Sudoeste 8 Sudeste 0 -- -- 49
2020-05-27 10:00:00 20.3 2 Noroeste 4 Oeste 0 -- -- 64
2020-05-27 09:00:00 16.9 2 Oeste 3 Oeste 0 -- -- 79
2020-05-27 08:00:00 13.4 2 Noroeste 4 Noroeste 0 -- -- 94
2020-05-27 07:00:00 10.9 0 Calma 3 Sudoeste 0 -- -- 97
2020-05-27 06:00:00 11.2 2 Oeste 4 Noroeste 0 -- -- 96
2020-05-27 05:00:00 11.6 0 Calma 8 Sudoeste 0 -- -- 95
2020-05-27 04:00:00 12.2 0 Calma 5 Sudoeste 0 -- -- 95
2020-05-27 03:00:00 12.7 2 Noroeste 4 Oeste 0 -- -- 93
2020-05-27 02:00:00 13.5 3 Oeste 6 Oeste 0 -- -- 92
2020-05-27 01:00:00 14.1 0 Calma 5 Norte 0 -- -- 89
2020-05-27 00:00:00 15.2 0 Calma 4 Oeste 0 -- -- 86
2020-05-26 23:00:00 16.9 0 Calma 4 Sudoeste 0 -- -- 79
2020-05-26 22:00:00 19.3 0 Calma 5 Sudoeste 0 -- -- 68
2020-05-26 21:00:00 22 0 Calma 10 Nordeste 0 -- -- 61
2020-05-26 20:00:00 25.2 6 Este 19 Nordeste 0 -- -- 47
2020-05-26 19:00:00 26.4 7 Este 24 Nordeste 0 -- -- 45
2020-05-26 18:00:00 26.5 7 Este 19 Este 0 -- -- 40
2020-05-26 17:00:00 27.7 12 Este 27 Nordeste 0 -- -- 38
2020-05-26 16:00:00 28.5 9 Este 19 Este 0 -- -- 39
2020-05-26 15:00:00 28.5 8 Este 22 Este 0 -- -- 39
2020-05-26 14:00:00 28.1 8 Este 21 Nordeste 0 -- -- 39
2020-05-26 13:00:00 27.7 7 Nordeste 14 Sudeste 0 -- -- 37
2020-05-26 12:00:00 26.8 3 Sudeste 9 Este 0 -- -- 41
2020-05-26 11:00:00 25.3 4 Este 12 Sudeste 0 -- -- 42
2020-05-26 10:00:00 21.1 0 Calma 0 Calma 0 -- -- 63
2020-05-26 09:00:00 16.8 0 Calma 0 Calma 0 -- -- 74
2020-05-26 08:00:00 12.2 0 Calma 0 Calma 0 -- -- 93
2020-05-26 07:00:00 9.5 0 Calma 0 Calma 0 -- -- 97
2020-05-26 06:00:00 9.6 0 Calma 0 Calma 0 -- -- 96
2020-05-26 05:00:00 9.9 0 Calma 0 Calma 0 -- -- 95
2020-05-26 04:00:00 10.7 0 Calma 5 Oeste 0 -- -- 94
2020-05-26 03:00:00 11.2 0 Calma 3 Oeste 0 -- -- 92
2020-05-26 02:00:00 12.1 2 Noroeste 5 Oeste 0 -- -- 90
2020-05-26 01:00:00 12.8 0 Calma 5 Sudoeste 0 -- -- 86
2020-05-26 00:00:00 14.2 0 Calma 5 Nordeste 0 -- -- 81
2020-05-25 23:00:00 15.9 3 Oeste 6 Sudoeste 0 -- -- 73
2020-05-25 22:00:00 17.7 4 Oeste 8 Sudoeste 0 -- -- 66
2020-05-25 21:00:00 21 2 Este 12 Este 0 -- -- 53
2020-05-25 20:00:00 23.8 8 Nordeste 19 Nordeste 0 -- -- 41
2020-05-25 19:00:00 24.7 9 Nordeste 27 Nordeste 0 -- -- 39
2020-05-25 18:00:00 25.2 12 Nordeste 25 Nordeste 0 -- -- 39
2020-05-25 17:00:00 25.8 13 Nordeste 25 Este 0 -- -- 38
2020-05-25 16:00:00 26 8 Este 18 Nordeste 0 -- -- 44
2020-05-25 15:00:00 25.9 9 Este 20 Este 0 -- -- 47
2020-05-25 14:00:00 24.9 3 Este 14 Este 0 -- -- 49
2020-05-25 13:00:00 25.1 4 Sudeste 13 Sudeste 0 -- -- 50
2020-05-25 12:00:00 23.7 5 Este 13 Nordeste 0 -- -- 48
2020-05-25 11:00:00 22.7 3 Este 10 Nordeste 0 -- -- 54
2020-05-25 10:00:00 20.3 4 Nordeste 8 Nordeste 0 -- -- 55
2020-05-25 09:00:00 18.4 2 Este 4 Este 0 -- -- 76
2020-05-25 08:00:00 17.3 0 Calma 3 Norte 0 -- -- 85
2020-05-25 07:00:00 16.8 0 Calma 3 Sudoeste 0 -- -- 85
2020-05-25 06:00:00 16.8 0 Calma 4 Este 0 -- -- 82
2020-05-25 05:00:00 16.9 0 Calma 4 Nordeste 0 -- -- 83
2020-05-25 04:00:00 17.1 0 Calma 4 Noroeste 0 -- -- 79
2020-05-25 03:00:00 17.1 2 Oeste 6 Nordeste 0 -- -- 76
2020-05-25 02:00:00 17.5 0 Calma 6 Este 0 -- -- 72
2020-05-25 01:00:00 17.9 0 Calma 3 Nordeste 0 -- -- 77
2020-05-25 00:00:00 18.4 0 Calma 4 Norte 0 -- -- 73
2020-05-24 23:00:00 18.8 0 Calma -- -- 0 -- -- 75
2020-05-24 22:00:00 19.7 0 Calma 0 Calma 0 -- -- 77
2020-05-24 21:00:00 20.8 0 Calma 3 Sudoeste 0 -- -- 72
2020-05-24 20:00:00 22.4 0 Calma 8 Sudoeste 0 -- -- 67
2020-05-24 19:00:00 24.3 2 Noroeste 9 Sudoeste 0 -- -- 54
2020-05-24 18:00:00 23.1 5 Oeste 9 Oeste 0 -- -- 58
2020-05-24 17:00:00 22.7 0 Calma 9 Nordeste 0 -- -- 61
2020-05-24 16:00:00 21.9 4 Este 11 Este 0 -- -- 61
2020-05-24 15:00:00 21.8 8 Este 16 Sudeste 0 -- -- 61
2020-05-24 14:00:00 22.7 7 Este 15 Nordeste 0 -- -- 59
2020-05-24 13:00:00 21.9 5 Este 13 Sudeste 0 -- -- 57
2020-05-24 12:00:00 19.8 4 Este 9 Nordeste 0 -- -- 60
2020-05-24 11:00:00 18.8 3 Este 12 Sudeste 0 -- -- 65
2020-05-24 10:00:00 18.1 6 Este 15 Este 0 -- -- 66
2020-05-24 09:00:00 18 6 Este 12 Nordeste 0 -- -- 68
2020-05-24 08:00:00 17.7 5 Nordeste 9 Este 0 -- -- 71
2020-05-24 07:00:00 16.1 2 Nordeste 6 Nordeste 0 -- -- 82
2020-05-24 06:00:00 16.3 4 Este 9 Este 0 -- -- 78
2020-05-24 05:00:00 16.4 6 Este 17 Este 0 -- -- 78
2020-05-24 04:00:00 16.6 6 Este 15 Este 0 -- -- 79
2020-05-24 03:00:00 17.8 2 Este 6 Nordeste 0 -- -- 80
2020-05-24 02:00:00 18.2 3 Noroeste 5 Este 0 -- -- 81
2020-05-24 01:00:00 18.4 0 Calma 8 Nordeste 0 -- -- 81
2020-05-24 00:00:00 18.7 3 Sudeste 6 Sudeste 0 -- -- 77
2020-05-23 23:00:00 19 0 Calma 5 Noroeste 0 -- -- 78
2020-05-23 22:00:00 19.7 0 Calma 8 Este 0 -- -- 69
2020-05-23 21:00:00 20.5 3 Sudeste 13 Este 0 -- -- 67
2020-05-23 20:00:00 21.5 5 Este 10 Nordeste 0 -- -- 68
2020-05-23 19:00:00 22.2 5 Este 18 Nordeste 0 -- -- 66
2020-05-23 18:00:00 22.8 9 Este 26 Nordeste 0 -- -- 68
2020-05-23 17:00:00 24.5 8 Este 29 Este 0 -- -- 62
2020-05-23 16:00:00 26.3 16 Este 32 Este 0 -- -- 56
2020-05-23 15:00:00 26.7 13 Nordeste 28 Nordeste 0 -- -- 57
2020-05-23 14:00:00 27.1 10 Este 22 Este 0 -- -- 55
2020-05-23 13:00:00 26.1 13 Este 23 Este 0 -- -- 56
2020-05-23 12:00:00 25.8 9 Este 22 Este 0 -- -- 56
2020-05-23 11:00:00 25 8 Este 17 Este 0 -- -- 61
2020-05-23 10:00:00 22.5 4 Nordeste 8 Nordeste 0 -- -- 63
2020-05-23 09:00:00 18.9 0 Calma 6 Noroeste 0 -- -- 70
2020-05-23 08:00:00 15.1 0 Calma 4 Oeste 0 -- -- 89
2020-05-23 07:00:00 12.3 0 Calma 5 Oeste 0 -- -- 95
2020-05-23 06:00:00 12.6 0 Calma 4 Noroeste 0 -- -- 94
2020-05-23 05:00:00 13.3 0 Calma 6 Oeste 0 -- -- 92
2020-05-23 04:00:00 13.7 2 Noroeste 7 Oeste 0 -- -- 91
2020-05-23 03:00:00 14.6 3 Oeste 6 Sudoeste 0 -- -- 91
2020-05-23 02:00:00 15.3 4 Oeste 6 Oeste 0 -- -- 91
2020-05-23 01:00:00 16.5 2 Oeste 5 Sudoeste 0 -- -- 90
2020-05-23 00:00:00 17.6 0 Calma 5 Oeste 0 -- -- 88
2020-05-22 23:00:00 19.1 0 Calma 5 Oeste 0 -- -- 83
2020-05-22 22:00:00 20.9 2 Oeste 4 Sudoeste 0 -- -- 77
2020-05-22 21:00:00 23.6 0 Calma 9 Sudeste 0 -- -- 65
2020-05-22 20:00:00 25.8 5 Sudeste 14 Nordeste 0 -- -- 57
2020-05-22 19:00:00 25.5 2 Sur 14 Nordeste 0 -- -- 61
2020-05-22 18:00:00 28.3 9 Nordeste 22 Nordeste 0 -- -- 51
2020-05-22 17:00:00 27.4 7 Este 30 Nordeste 0 -- -- 55
2020-05-22 16:00:00 29.8 15 Nordeste 30 Este 0 -- -- 50
2020-05-22 15:00:00 30.1 11 Nordeste 23 Nordeste 0 -- -- 48
2020-05-22 14:00:00 29.5 13 Nordeste 24 Este 0 -- -- 46
2020-05-22 13:00:00 29.3 8 Este 15 Nordeste 0 -- -- 45
2020-05-22 12:00:00 28.5 4 Este 8 Nordeste 0 -- -- 47
2020-05-22 11:00:00 25.4 0 Calma 7 Oeste 0 -- -- 60
2020-05-22 10:00:00 21 2 Oeste 4 Sudoeste 0 -- -- 71
2020-05-22 09:00:00 17.4 0 Calma 5 Oeste 0 -- -- 83
2020-05-22 08:00:00 14.1 2 Oeste 4 Oeste 0 -- -- 95
2020-05-22 07:00:00 12.2 2 Noroeste 5 Noroeste 0 -- -- 97
2020-05-22 06:00:00 12.4 0 Calma 3 Oeste 0 -- -- 97
2020-05-22 05:00:00 12.8 0 Calma 3 Oeste 0 -- -- 96
2020-05-22 04:00:00 13.3 4 Oeste 6 Sudoeste 0 -- -- 96
2020-05-22 03:00:00 13.9 2 Oeste 4 Oeste 0 -- -- 94
2020-05-22 02:00:00 14.6 3 Oeste 4 Noroeste 0 -- -- 93
2020-05-22 01:00:00 15.4 0 Calma 3 Sudoeste 0 -- -- 90
2020-05-22 00:00:00 16.5 0 Calma 4 Noroeste 0 -- -- 86
2020-05-21 23:00:00 17.9 0 Calma 4 Noroeste 0 -- -- 82
2020-05-21 22:00:00 19.9 2 Noroeste 9 Oeste 0 -- -- 73
2020-05-21 21:00:00 21.8 2 Sudoeste 6 Sudoeste 0 -- -- 65
2020-05-21 20:00:00 24.8 3 Sudeste 20 Este 0 -- -- 55
2020-05-21 19:00:00 26.7 11 Este 22 Nordeste 0 -- -- 44
2020-05-21 18:00:00 27.7 11 Nordeste 24 Este 0 -- -- 42
2020-05-21 17:00:00 28.1 12 Este 29 Nordeste 0 -- -- 43
2020-05-21 16:00:00 29.1 14 Este 31 Nordeste 0 -- -- 42
2020-05-21 15:00:00 30.4 7 Nordeste 15 Este 0 -- -- 31
2020-05-21 14:00:00 30.3 4 Norte 12 Este 0 -- -- 32
2020-05-21 13:00:00 29.6 4 Este 10 Este 0 -- -- 29
2020-05-21 12:00:00 28.7 3 Sudeste 7 Nordeste 0 -- -- 43
2020-05-21 11:00:00 25.5 2 Sur 6 Oeste 0 -- -- 59
2020-05-21 10:00:00 21 3 Nordeste 5 Nordeste 0 -- -- 66
2020-05-21 09:00:00 16.7 2 Oeste 5 Noroeste 0 -- -- 82
2020-05-21 08:00:00 13.2 2 Oeste 4 Noroeste 0 -- -- 95
2020-05-21 07:00:00 10.6 0 Calma 4 Noroeste 0 -- -- 97
2020-05-21 06:00:00 10.7 0 Calma 3 Oeste 0 -- -- 96
2020-05-21 05:00:00 11.1 2 Oeste 4 Oeste 0 -- -- 96
2020-05-21 04:00:00 11.5 0 Calma 3 Noroeste 0 -- -- 95
2020-05-21 03:00:00 12.3 0 Calma 3 Oeste 0 -- -- 93
2020-05-21 02:00:00 13.1 0 Calma 3 Oeste 0 -- -- 91
2020-05-21 01:00:00 14.2 0 Calma 5 Oeste 0 -- -- 88
2020-05-21 00:00:00 15.3 0 Calma 4 Norte 0 -- -- 83
2020-05-20 23:00:00 17.1 3 Oeste 5 Oeste 0 -- -- 75
2020-05-20 22:00:00 19.5 2 Sudoeste 8 Oeste 0 -- -- 64
2020-05-20 21:00:00 22.9 2 Nordeste 11 Sur 0 -- -- 55
2020-05-20 20:00:00 25.3 3 Sudeste 13 Este 0 -- -- 47
2020-05-20 19:00:00 27.5 3 Sudeste 18 Sudeste 0 -- -- 38
2020-05-20 18:00:00 28.1 8 Sudeste 21 Sudeste 0 -- -- 33
2020-05-20 17:00:00 29.3 4 Sudeste 18 Sudeste 0 -- -- 29
2020-05-20 16:00:00 29.4 6 Este 21 Este 0 -- -- 31
2020-05-20 15:00:00 29.4 6 Sur 18 Sudeste 0 -- -- 26
2020-05-20 14:00:00 28.9 5 Este 22 Nordeste 0 -- -- 31
2020-05-20 13:00:00 28.8 6 Este 21 Este 0 -- -- 26
2020-05-20 12:00:00 27.7 6 Este 11 Este 0 -- -- 27
2020-05-20 11:00:00 24.1 2 Sudoeste 7 Oeste 0 -- -- 47
2020-05-20 10:00:00 18.8 0 Calma 5 Sudoeste 0 -- -- 61
2020-05-20 09:00:00 15 4 Oeste 6 Oeste 0 -- -- 76
2020-05-20 08:00:00 11.5 2 Este 6 Sudoeste 0 -- -- 91
2020-05-20 07:00:00 8.9 3 Oeste 7 Noroeste 0 -- -- 96
2020-05-20 06:00:00 9.4 0 Calma 6 Oeste 0 -- -- 96
2020-05-20 05:00:00 10.3 2 Noroeste 6 Norte 0 -- -- 95
2020-05-20 04:00:00 11 3 Oeste 9 Sudoeste 0 -- -- 94
2020-05-20 03:00:00 11.9 2 Este 6 Oeste 0 -- -- 92
2020-05-20 02:00:00 12.7 0 Calma 4 Sudoeste 0 -- -- 91
2020-05-20 01:00:00 13.7 2 Oeste 5 Noroeste 0 -- -- 89
2020-05-20 00:00:00 14.5 0 Calma 5 Oeste 0 -- -- 86
2020-05-19 23:00:00 15.8 2 Nordeste 6 Nordeste 0 -- -- 82
2020-05-19 22:00:00 18.1 2 Oeste 9 Sudoeste 0 -- -- 72
2020-05-19 21:00:00 21.4 2 Sudoeste 8 Sudoeste 0 -- -- 61
2020-05-19 20:00:00 25.1 4 Sur 18 Este 0 -- -- 43
2020-05-19 19:00:00 27.3 6 Sudeste 21 Nordeste 0 -- -- 36
2020-05-19 18:00:00 28 12 Este 26 Este 0 -- -- 33
2020-05-19 17:00:00 28.6 5 Sudeste 24 Sudeste 0 -- -- 35
2020-05-19 16:00:00 29.4 8 Nordeste 24 Noroeste 0 -- -- 25
2020-05-19 15:00:00 29.5 7 Norte 19 Noroeste 0 -- -- 27
2020-05-19 14:00:00 28.8 6 Este 20 Norte 0 -- -- 29
2020-05-19 13:00:00 28.1 3 Sur 18 Sudoeste 0 -- -- 34
2020-05-19 12:00:00 26.9 4 Sur 8 Sur 0 -- -- 40
2020-05-19 11:00:00 23.8 0 Calma 9 Noroeste 0 -- -- 45
2020-05-19 10:00:00 18.4 2 Oeste 6 Oeste 0 -- -- 69
2020-05-19 09:00:00 14.8 2 Oeste 6 Noroeste 0 -- -- 72
2020-05-19 08:00:00 10.6 2 Noroeste 6 Noroeste 0 -- -- 93
2020-05-19 07:00:00 8 0 Calma 7 Noroeste 0 -- -- 96
2020-05-19 06:00:00 8.2 3 Oeste 8 Noroeste 0 -- -- 95
2020-05-19 05:00:00 8.7 3 Sudoeste 9 Norte 0 -- -- 94
2020-05-19 04:00:00 9.3 2 Oeste 6 Noroeste 0 -- -- 94
2020-05-19 03:00:00 10.1 0 Calma 7 Oeste 0 -- -- 93
2020-05-19 02:00:00 10.6 0 Calma 6 Noroeste 0 -- -- 91
2020-05-19 01:00:00 11.4 2 Noroeste 6 Norte 0 -- -- 89
2020-05-19 00:00:00 12.6 3 Sudoeste 8 Norte 0 -- -- 85
2020-05-18 23:00:00 13.8 3 Sudoeste 7 Noroeste 0 -- -- 81
2020-05-18 22:00:00 16.3 0 Calma 6 Oeste 0 -- -- 71
2020-05-18 21:00:00 19.7 3 Oeste 11 Sudoeste 0 -- -- 57
2020-05-18 20:00:00 23.9 5 Sudoeste 18 Sudoeste 0 -- -- 38
2020-05-18 19:00:00 25.7 8 Sudoeste 18 Sudoeste 0 -- -- 36
2020-05-18 18:00:00 26 4 Sur 15 Sudoeste 0 -- -- 32
2020-05-18 17:00:00 26.2 7 Sudeste 22 Este 0 -- -- 31
2020-05-18 16:00:00 26.1 9 Este 21 Nordeste 0 -- -- 33
2020-05-18 15:00:00 26.2 8 Este 19 Nordeste 0 -- -- 29
2020-05-18 14:00:00 26 10 Este 23 Sudeste 0 -- -- 32
2020-05-18 13:00:00 25.4 4 Sudeste 12 Nordeste 0 -- -- 36
2020-05-18 12:00:00 23.6 4 Oeste 10 Sudoeste 0 -- -- 42
2020-05-18 11:00:00 20.1 0 Calma 7 Noroeste 0 -- -- 48
2020-05-18 10:00:00 15.4 3 Oeste 6 Oeste 0 -- -- 68
2020-05-18 09:00:00 12.7 3 Noroeste 12 Noroeste 0 -- -- 78
2020-05-18 08:00:00 8.7 3 Oeste 7 Noroeste 0 -- -- 98
2020-05-18 07:00:00 7.1 0 Calma 5 Sudoeste 0 -- -- 98
2020-05-18 06:00:00 7.4 3 Oeste 5 Sudoeste 0 -- -- 97
2020-05-18 05:00:00 8.3 0 Calma 4 Norte 0 -- -- 97
2020-05-18 04:00:00 8.9 2 Este 6 Noroeste 0 -- -- 97
2020-05-18 03:00:00 9.7 0 Calma 3 Noroeste 0 -- -- 96
2020-05-18 02:00:00 10.4 0 Calma 5 Sudoeste 0 -- -- 95
2020-05-18 01:00:00 11.3 0 Calma 4 Noroeste 0 -- -- 93
2020-05-18 00:00:00 12.3 0 Calma 4 Nordeste 0 -- -- 90
2020-05-17 23:00:00 14.1 0 Calma 5 Oeste 0 -- -- 83
2020-05-17 22:00:00 15.9 4 Oeste 8 Sudoeste 0 -- -- 75
2020-05-17 21:00:00 18.9 3 Sur 12 Sudoeste 0 -- -- 61
2020-05-17 20:00:00 22.2 4 Sur 13 Sudeste 0 -- -- 46
2020-05-17 19:00:00 23.2 6 Este 17 Este 0 -- -- 46
2020-05-17 18:00:00 23.8 5 Nordeste 17 Este 0 -- -- 41
2020-05-17 17:00:00 23.7 9 Este 26 Este 0 -- -- 45
2020-05-17 16:00:00 24.1 8 Este 22 Este 0 -- -- 37
2020-05-17 15:00:00 22.5 8 Nordeste 17 Nordeste 0 -- -- 46
2020-05-17 14:00:00 22.6 8 Nordeste 15 Nordeste 0 -- -- 49
2020-05-17 13:00:00 20.9 4 Este 15 Nordeste 0 -- -- 54
2020-05-17 12:00:00 20.7 10 Este 22 Nordeste 0 -- -- 55
2020-05-17 11:00:00 19 0 Calma 7 Oeste 0 -- -- 62
2020-05-17 10:00:00 15.4 2 Noroeste 5 Nordeste 0 -- -- 82
2020-05-17 09:00:00 13.5 3 Nordeste 6 Sudoeste 0 -- -- 94
2020-05-17 08:00:00 11.6 2 Norte 5 Oeste 0 -- -- 99
2020-05-17 07:00:00 11.1 2 Noroeste 5 Oeste 0 -- -- 98
2020-05-17 06:00:00 11.2 0 Calma 4 Noroeste 0 -- -- 98
2020-05-17 05:00:00 11.5 0 Calma 5 Oeste 0 -- -- 98
2020-05-17 04:00:00 11.5 3 Noroeste 6 Noroeste 0 -- -- 97
2020-05-17 03:00:00 11.7 0 Calma 4 Oeste 0 -- -- 96
2020-05-17 02:00:00 12.1 0 Calma 6 Sudoeste 0 -- -- 96
2020-05-17 01:00:00 12.4 0 Calma 5 Sudoeste 0 -- -- 95
2020-05-17 00:00:00 12.5 4 Oeste 8 Noroeste 0 -- -- 96
2020-05-16 23:00:00 12.6 3 Oeste 7 Nordeste 0 -- -- 95
2020-05-16 22:00:00 13.3 2 Oeste 6 Sudoeste 0 -- -- 93
2020-05-16 21:00:00 14 2 Sudeste 6 Sudoeste 0.2 -- -- 89
2020-05-16 20:00:00 16.3 3 Sudeste 9 Sudoeste 0.4 -- -- 78
2020-05-16 19:00:00 19.4 3 Sudeste 11 Sudeste 0 -- -- 54
2020-05-16 18:00:00 21.2 3 Sudeste 18 Oeste 0 -- -- 49
2020-05-16 17:00:00 21.3 5 Noroeste 19 Oeste 0 -- -- 51
2020-05-16 16:00:00 20.3 8 Oeste 15 Norte 0 -- -- 50
2020-05-16 15:00:00 20.3 4 Norte 19 Nordeste 0 -- -- 50
2020-05-16 14:00:00 21 7 Nordeste 19 Nordeste 0 -- -- 52
2020-05-16 13:00:00 20.4 5 Sudeste 10 Sudeste 0 -- -- 63
2020-05-16 12:00:00 17.2 5 Nordeste 9 Nordeste 0 -- -- 78
2020-05-16 11:00:00 15.5 3 Norte 5 Este 0.2 -- -- 81
2020-05-16 10:00:00 12.8 3 Oeste 5 Noroeste 1 -- -- 94
2020-05-16 09:00:00 11.8 2 Sudoeste 4 Sudoeste 0.4 -- -- 97
2020-05-16 08:00:00 11.2 0 Calma 7 Sudoeste 0.2 -- -- 97
2020-05-16 07:00:00 10.9 2 Sudoeste 7 Sudoeste 0 -- -- 97
2020-05-16 06:00:00 10.8 2 Sudoeste 9 Oeste 0 -- -- 96
2020-05-16 05:00:00 10.9 2 Noroeste 4 Sudoeste 0 -- -- 96
2020-05-16 04:00:00 11.3 0 Calma 4 Sudoeste 0 -- -- 94
2020-05-16 03:00:00 12.3 0 Calma 6 Oeste 0 -- -- 91
2020-05-16 02:00:00 13.3 0 Calma 12 Oeste 0 -- -- 86
2020-05-16 01:00:00 14.3 9 Sudoeste 27 Oeste 0 -- -- 74
2020-05-16 00:00:00 13.5 0 Calma 6 Sudoeste 0 -- -- 95
2020-05-15 23:00:00 13.6 0 Calma 5 Oeste 0 -- -- 94
2020-05-15 22:00:00 14 0 Calma 5 Sur 0 -- -- 92
2020-05-15 21:00:00 15 0 Calma 8 Sudoeste 0 -- -- 88
2020-05-15 20:00:00 16 0 Calma 12 Nordeste 0 -- -- 84
2020-05-15 19:00:00 15.9 6 Este 16 Sudeste 0 -- -- 82
2020-05-15 18:00:00 16 6 Este 25 Nordeste 0 -- -- 84
2020-05-15 17:00:00 17.3 15 Este 29 Este 0 -- -- 78
2020-05-15 16:00:00 18.3 2 Sudeste 13 Sudeste 0 -- -- 73
2020-05-15 15:00:00 19.3 7 Este 24 Este 0 -- -- 66
2020-05-15 14:00:00 20.4 6 Nordeste 13 Nordeste 0 -- -- 62
2020-05-15 13:00:00 19.5 6 Nordeste 15 Este 0 -- -- 61
2020-05-15 12:00:00 16.8 4 Sudeste 9 Nordeste 0 -- -- 76
2020-05-15 11:00:00 14.8 2 Sudoeste 5 Oeste 0 -- -- 85
2020-05-15 10:00:00 13.4 2 Noroeste 4 Noroeste 0 -- -- 95
2020-05-15 09:00:00 11.9 0 Calma 4 Sudeste 0 -- -- 100
2020-05-15 08:00:00 10.8 0 Calma 4 Noroeste 0 -- -- 100
2020-05-15 07:00:00 10.2 4 Oeste 6 Oeste 0.2 -- -- 100
2020-05-15 06:00:00 9.9 0 Calma 5 Sudoeste 0 -- -- 100
2020-05-15 05:00:00 9.6 4 Sudoeste 6 Oeste 0 -- -- 100
2020-05-15 04:00:00 9.5 0 Calma 4 Sudoeste 0 -- -- 100
2020-05-15 03:00:00 9.9 0 Calma 4 Sudoeste 0 -- -- 99
2020-05-15 02:00:00 10.2 2 Sudoeste 4 Oeste 0 -- -- 99
2020-05-15 01:00:00 10.4 4 Sudoeste 7 Oeste 0 -- -- 98
2020-05-15 00:00:00 11.1 3 Sudoeste 5 Oeste 0 -- -- 98
2020-05-14 23:00:00 11.8 3 Sudoeste 5 Oeste 0 -- -- 98
2020-05-14 22:00:00 12.3 0 Calma 5 Sudoeste 0 -- -- 97
2020-05-14 21:00:00 12.6 2 Sur 4 Sur 0.6 -- -- 97
2020-05-14 20:00:00 13.2 0 Calma 8 Oeste 0.8 -- -- 95
2020-05-14 19:00:00 13.7 2 Noroeste 5 Este 1.8 -- -- 94
2020-05-14 18:00:00 14 4 Nordeste 13 Sudeste 2 -- -- 93
2020-05-14 17:00:00 14.7 2 Noroeste 8 Sudeste 1.8 -- -- 93
2020-05-14 16:00:00 14.5 4 Este 12 Este 1 -- -- 93
2020-05-14 15:00:00 14.9 5 Este 19 Este 3 -- -- 93
2020-05-14 14:00:00 16.3 2 Sudeste 16 Sudeste 0.8 -- -- 86
2020-05-14 13:00:00 17.5 7 Este 25 Nordeste 0 -- -- 75
2020-05-14 12:00:00 19.1 8 Este 15 Nordeste 0 -- -- 64
2020-05-14 11:00:00 18.8 3 Sudeste 11 Este 0 -- -- 69
2020-05-14 10:00:00 16.2 3 Nordeste 6 Noroeste 0 -- -- 83
2020-05-14 09:00:00 15.3 3 Norte 6 Norte 0 -- -- 88
2020-05-14 08:00:00 13.9 5 Oeste 6 Sudoeste 0 -- -- 94
2020-05-14 07:00:00 13.6 3 Oeste 6 Nordeste 0 -- -- 94
2020-05-14 06:00:00 13.8 2 Noroeste 8 Sudoeste 0 -- -- 92
2020-05-14 05:00:00 14.5 2 Noroeste 3 Noroeste 0 -- -- 95
2020-05-14 04:00:00 14.4 0 Calma 5 Sudoeste 0 -- -- 94
2020-05-14 03:00:00 15 0 Calma 5 Este 0 -- -- 93
2020-05-14 02:00:00 15.1 0 Calma 3 Nordeste 0 -- -- 92
2020-05-14 01:00:00 15.6 0 Calma 6 Nordeste 0 -- -- 90
2020-05-14 00:00:00 16.1 3 Este 9 Este 0 -- -- 88
2020-05-13 23:00:00 16.5 4 Este 14 Este 0 -- -- 86
2020-05-13 22:00:00 17 5 Este 14 Este 0 -- -- 81
2020-05-13 21:00:00 17.7 4 Este 18 Nordeste 0 -- -- 77
2020-05-13 20:00:00 18.6 6 Este 27 Este 0 -- -- 77
2020-05-13 19:00:00 20.6 13 Este 32 Nordeste 0 -- -- 66
2020-05-13 18:00:00 24 4 Sur 25 Sudoeste 0 -- -- 42
2020-05-13 17:00:00 24 6 Sur 27 Sudoeste 0 -- -- 42
2020-05-13 16:00:00 24.3 11 Oeste 27 Oeste 0 -- -- 44
2020-05-13 15:00:00 23.6 15 Sudoeste 32 Sudoeste 0 -- -- 46
2020-05-13 14:00:00 22.6 14 Sudoeste 35 Sudoeste 0 -- -- 51
2020-05-13 13:00:00 22 13 Sudoeste 27 Oeste 0 -- -- 56
2020-05-13 12:00:00 20.5 5 Norte 11 Nordeste 0 -- -- 61
2020-05-13 11:00:00 17.8 3 Sudoeste 8 Sudoeste 0 -- -- 78
2020-05-13 10:00:00 14.8 0 Calma 6 Oeste 0.2 -- -- 94
2020-05-13 09:00:00 13 0 Calma 5 Oeste 0 -- -- 98
2020-05-13 08:00:00 12.8 0 Calma 9 Sudoeste 0.4 -- -- 98
2020-05-13 07:00:00 12.8 0 Calma 7 Noroeste 1.2 -- -- 98
2020-05-13 06:00:00 12.9 2 Oeste 8 Sudoeste 0.2 -- -- 98
2020-05-13 05:00:00 12.9 2 Este 4 Nordeste 0 -- -- 98
2020-05-13 04:00:00 13 4 Sudoeste 7 Sudoeste 0.2 -- -- 97
2020-05-13 03:00:00 13.3 5 Nordeste 10 Nordeste 1 -- -- 97
2020-05-13 02:00:00 13.5 3 Norte 8 Nordeste 0.2 -- -- 95
2020-05-13 01:00:00 13.9 3 Noroeste 11 Sudeste 0.4 -- -- 93
2020-05-13 00:00:00 13.9 6 Sudeste 12 Sudeste 0 -- -- 91
2020-05-12 23:00:00 14.4 3 Nordeste 5 Nordeste 0 -- -- 89
2020-05-12 22:00:00 14.5 2 Este 4 Sudeste 0 -- -- 88
2020-05-12 21:00:00 14.7 0 Calma 7 Nordeste 0 -- -- 86
2020-05-12 20:00:00 14.9 5 Este 10 Nordeste 0 -- -- 84
2020-05-12 19:00:00 15 3 Este 15 Nordeste 0 -- -- 84
2020-05-12 18:00:00 15.1 4 Este 15 Nordeste 0 -- -- 85
2020-05-12 17:00:00 15.9 8 Nordeste 33 Este 0 -- -- 83
2020-05-12 16:00:00 17.7 19 Este 35 Nordeste 0 -- -- 74
2020-05-12 15:00:00 18.7 19 Este 33 Este 0 -- -- 73
2020-05-12 14:00:00 19.4 11 Este 28 Este 0 -- -- 71
2020-05-12 13:00:00 20.3 16 Este 31 Nordeste 0 -- -- 67
2020-05-12 12:00:00 20 10 Este 18 Este 0 -- -- 64
2020-05-12 11:00:00 19.5 4 Nordeste 11 Nordeste 0 -- -- 63
2020-05-12 10:00:00 15.9 2 Nordeste 7 Nordeste 0 -- -- 81
2020-05-12 09:00:00 12.4 3 Oeste 6 Oeste 0 -- -- 99
2020-05-12 08:00:00 10.7 0 Calma 6 Sudoeste 0 -- -- 100
2020-05-12 07:00:00 10.6 0 Calma 5 Oeste 0 -- -- 99
2020-05-12 06:00:00 11.4 0 Calma 4 Oeste 0 -- -- 98
2020-05-12 05:00:00 11.6 0 Calma 4 Sudeste 0 -- -- 98
2020-05-12 04:00:00 12.2 0 Calma 3 Sur 0 -- -- 97
2020-05-12 03:00:00 12.9 0 Calma 2 Norte 0 -- -- 96
2020-05-12 02:00:00 13.6 2 Noroeste 4 Noroeste 0 -- -- 95
2020-05-12 01:00:00 14 0 Calma 4 Sudoeste 0 -- -- 94
2020-05-12 00:00:00 14.2 0 Calma 5 Norte 0 -- -- 94
2020-05-11 23:00:00 14.4 0 Calma 4 Sudeste 0 -- -- 92
2020-05-11 22:00:00 14.8 2 Sudeste 5 Sudeste 0 -- -- 90
2020-05-11 21:00:00 15 0 Calma 13 Nordeste 0 -- -- 89
2020-05-11 20:00:00 16.1 5 Nordeste 20 Nordeste 0 -- -- 83
2020-05-11 19:00:00 16.8 9 Este 23 Nordeste 0 -- -- 82
2020-05-11 18:00:00 17.5 11 Este 23 Este 0 -- -- 78
2020-05-11 17:00:00 19.8 5 Este 21 Sudoeste 0 -- -- 63
2020-05-11 16:00:00 18.7 8 Sudoeste 24 Sudoeste 0 -- -- 60
2020-05-11 15:00:00 19.1 15 Sudoeste 31 Oeste 0 -- -- 57
2020-05-11 14:00:00 20.3 12 Sudoeste 37 Oeste 0.2 -- -- 57
2020-05-11 13:00:00 19.3 13 Sudoeste 32 Sudoeste 0 -- -- 61
2020-05-11 12:00:00 17.3 9 Oeste 17 Oeste 0 -- -- 67
2020-05-11 11:00:00 15.8 3 Noroeste 13 Sudoeste 0 -- -- 79
2020-05-11 10:00:00 14.5 0 Calma 6 Oeste 0 -- -- 91
2020-05-11 09:00:00 12.3 0 Calma 4 Oeste 0 -- -- 100
2020-05-11 08:00:00 10.9 2 Nordeste 5 Nordeste 0 -- -- 100
2020-05-11 07:00:00 9.3 4 Noroeste 9 Noroeste 0 -- -- 100
2020-05-11 06:00:00 9.4 0 Calma 6 Sudoeste 0 -- -- 100
2020-05-11 05:00:00 9.9 3 Oeste 5 Oeste 0 -- -- 99
2020-05-11 04:00:00 10.4 2 Oeste 4 Oeste 0 -- -- 99
2020-05-11 03:00:00 10.8 2 Oeste 5 Oeste 0 -- -- 99
2020-05-11 02:00:00 11.2 3 Sudoeste 6 Sudoeste 0 -- -- 98
2020-05-11 01:00:00 11.5 0 Calma 5 Oeste 0.6 -- -- 97
2020-05-11 00:00:00 11.8 2 Sudoeste 6 Sudoeste 1 -- -- 97
2020-05-10 23:00:00 12.2 0 Calma 15 Sudoeste 0.2 -- -- 94
2020-05-10 22:00:00 12.8 11 Sudoeste 27 Oeste 0.8 -- -- 91
2020-05-10 21:00:00 13.7 4 Noroeste 15 Noroeste 6 -- -- 97
2020-05-10 20:00:00 13.8 3 Sur 9 Sudoeste 4.6 -- -- 96
2020-05-10 19:00:00 14.6 2 Sudoeste 14 Sur 1.6 -- -- 94
2020-05-10 18:00:00 15.2 5 Sudoeste 13 Sudoeste 0.8 -- -- 87
2020-05-10 17:00:00 17.6 0 Calma 5 Noroeste 0.2 -- -- 87
2020-05-10 16:00:00 17.2 2 Sudoeste 13 Sudoeste 4.4 -- -- 89
2020-05-10 15:00:00 17.5 2 Noroeste 8 Sudoeste 0 -- -- 89
2020-05-10 14:00:00 16.7 3 Nordeste 26 Nordeste 4.4 -- -- 90
2020-05-10 13:00:00 16.5 10 Nordeste 18 Nordeste 0.8 -- -- 92
2020-05-10 12:00:00 16.7 4 Este 11 Sudeste 0 -- -- 97
2020-05-10 11:00:00 16 5 Sudeste 12 Sudeste 0.2 -- -- 98
2020-05-10 10:00:00 15.8 5 Nordeste 19 Nordeste 2.2 -- -- 99
2020-05-10 09:00:00 15 0 Calma 6 Noroeste 13.4 -- -- 98
2020-05-10 08:00:00 15 0 Calma 4 Nordeste 0.8 -- -- 98
2020-05-10 07:00:00 14.9 2 Nordeste 9 Sudoeste 0 -- -- 98
2020-05-10 06:00:00 14.9 4 Noroeste 7 Oeste 0 -- -- 98
2020-05-10 05:00:00 15.1 2 Sudeste 4 Sudeste 0 -- -- 98
2020-05-10 04:00:00 15.5 0 Calma 3 Este 0 -- -- 98
2020-05-10 03:00:00 15.7 0 Calma 4 Sudoeste 0 -- -- 97
2020-05-10 02:00:00 15.8 3 Oeste 5 Sudeste 0.2 -- -- 97
2020-05-10 01:00:00 15.8 0 Calma 5 Sudoeste 0.6 -- -- 96
2020-05-10 00:00:00 16.1 0 Calma 8 Este 0 -- -- 94
2020-05-09 23:00:00 16 4 Este 10 Este 0 -- -- 94
2020-05-09 22:00:00 16.4 5 Este 13 Sudeste 0 -- -- 91
2020-05-09 21:00:00 17.2 5 Este 12 Este 0 -- -- 87
2020-05-09 20:00:00 17.5 6 Sudeste 14 Este 0 -- -- 86
2020-05-09 19:00:00 18.2 8 Este 17 Nordeste 0 -- -- 83
2020-05-09 18:00:00 19.4 11 Este 20 Este 0 -- -- 77
2020-05-09 17:00:00 19.1 5 Este 8 Nordeste 0 -- -- 75
2020-05-09 16:00:00 17.4 4 Sudoeste 8 Sudoeste 0 -- -- 87
2020-05-09 15:00:00 17.6 0 Calma 12 Nordeste 0 -- -- 81
2020-05-09 14:00:00 18.3 5 Nordeste 21 Nordeste 0 -- -- 74
2020-05-09 13:00:00 19.4 8 Este 15 Este 0 -- -- 68
2020-05-09 12:00:00 19.6 6 Este 13 Este 0 -- -- 67
2020-05-09 11:00:00 19.4 3 Este 8 Sudeste 0 -- -- 64
2020-05-09 10:00:00 16.4 2 Noroeste 6 Nordeste 0 -- -- 76
2020-05-09 09:00:00 12.5 0 Calma 7 Sudoeste 0 -- -- 94
2020-05-09 08:00:00 10.2 0 Calma 6 Noroeste 0 -- -- 98
2020-05-09 07:00:00 8.8 0 Calma 8 Sudoeste 0 -- -- 98
2020-05-09 06:00:00 8.8 0 Calma 7 Oeste 0 -- -- 97
2020-05-09 05:00:00 9.4 0 Calma 6 Oeste 0 -- -- 96
2020-05-09 04:00:00 10.1 0 Calma 4 Sudoeste 0 -- -- 96
2020-05-09 03:00:00 10.7 2 Este 5 Oeste 0 -- -- 94
2020-05-09 02:00:00 11.6 2 Noroeste 6 Oeste 0 -- -- 93
2020-05-09 01:00:00 12.5 0 Calma 6 Sudoeste 0 -- -- 90
2020-05-09 00:00:00 13.7 0 Calma 4 Sudoeste 0 -- -- 86
2020-05-08 23:00:00 15.9 2 Nordeste 13 Sudeste 0 -- -- 76
2020-05-08 22:00:00 17.7 6 Sudeste 14 Sudeste 0 -- -- 66
2020-05-08 21:00:00 19.6 6 Este 13 Este 0 -- -- 61
2020-05-08 20:00:00 22.9 9 Este 27 Nordeste 0 -- -- 49
2020-05-08 19:00:00 24.3 12 Este 24 Este 0 -- -- 45
2020-05-08 18:00:00 25.7 8 Nordeste 31 Este 0 -- -- 42
2020-05-08 17:00:00 26.8 6 Este 18 Nordeste 0 -- -- 32
2020-05-08 16:00:00 26.4 6 Sudoeste 20 Sudoeste 0 -- -- 31
2020-05-08 15:00:00 26.6 9 Sur 24 Sudoeste 0 -- -- 29
2020-05-08 14:00:00 25.9 6 Sudeste 26 Sudeste 0 -- -- 35
2020-05-08 13:00:00 25.7 6 Sudeste 27 Sudoeste 0 -- -- 32
2020-05-08 12:00:00 25 8 Sur 22 Sur 0 -- -- 30
2020-05-08 11:00:00 22.8 3 Este 7 Nordeste 0 -- -- 49
2020-05-08 10:00:00 17.2 0 Calma 6 Noroeste 0 -- -- 77
2020-05-08 09:00:00 13.6 0 Calma 5 Oeste 0 -- -- 98
2020-05-08 08:00:00 10.8 3 Oeste 5 Oeste 0 -- -- 99
2020-05-08 07:00:00 10.1 0 Calma 6 Oeste 0 -- -- 98
2020-05-08 06:00:00 10.9 2 Sudoeste 7 Oeste 0 -- -- 97
2020-05-08 05:00:00 11.7 2 Noroeste 5 Oeste 0 -- -- 97
2020-05-08 04:00:00 12.2 3 Sudoeste 8 Noroeste 0 -- -- 96
2020-05-08 03:00:00 12.3 2 Sudoeste 6 Oeste 0 -- -- 96
2020-05-08 02:00:00 12.9 0 Calma 5 Oeste 0 -- -- 95
2020-05-08 01:00:00 13.4 5 Sudoeste 8 Sudoeste 0 -- -- 95
2020-05-08 00:00:00 14.2 0 Calma 4 Oeste 0 -- -- 93
2020-05-07 23:00:00 15.1 0 Calma 4 Nordeste 0 -- -- 90
2020-05-07 22:00:00 16.5 3 Este 10 Sudeste 0 -- -- 91
2020-05-07 21:00:00 17.8 5 Este 14 Sudeste 0 -- -- 80
2020-05-07 20:00:00 19 8 Este 16 Sudeste 0 -- -- 72
2020-05-07 19:00:00 20.2 8 Este 16 Este 0 -- -- 64
2020-05-07 18:00:00 21.1 8 Este 24 Este 0 -- -- 62
2020-05-07 17:00:00 23.2 13 Este 29 Este 0 -- -- 54
2020-05-07 16:00:00 24.9 13 Nordeste 29 Este 0 -- -- 53
2020-05-07 15:00:00 25.1 15 Nordeste 30 Nordeste 0 -- -- 51
2020-05-07 14:00:00 24.9 13 Este 26 Este 0 -- -- 51
2020-05-07 13:00:00 24.7 11 Este 18 Nordeste 0 -- -- 52
2020-05-07 12:00:00 24.6 6 Nordeste 14 Nordeste 0 -- -- 50
2020-05-07 11:00:00 22.5 8 Este 15 Este 0 -- -- 59
2020-05-07 10:00:00 20.1 5 Este 12 Nordeste 0 -- -- 68
2020-05-07 09:00:00 17.6 2 Noroeste 4 Noroeste 0 -- -- 81
2020-05-07 08:00:00 15.3 2 Oeste 5 Oeste 0 -- -- 92
2020-05-07 07:00:00 13.9 2 Oeste 5 Oeste 0 -- -- 95
2020-05-07 06:00:00 13.7 0 Calma 9 Sudoeste 0 -- -- 96
2020-05-07 05:00:00 13.2 3 Oeste 5 Oeste 0 -- -- 97
2020-05-07 04:00:00 12.7 0 Calma 5 Oeste 0 -- -- 96
2020-05-07 03:00:00 13.3 0 Calma 4 Noroeste 0 -- -- 95
2020-05-07 02:00:00 14 0 Calma 3 Oeste 0 -- -- 94
2020-05-07 01:00:00 15 0 Calma 4 Noroeste 0 -- -- 92
2020-05-07 00:00:00 16.2 0 Calma 4 Nordeste 0 -- -- 89
2020-05-06 23:00:00 17.3 0 Calma 3 Nordeste 0 -- -- 84
2020-05-06 22:00:00 18.8 0 Calma 3 Oeste 0 -- -- 80
2020-05-06 21:00:00 19.3 0 Calma 4 Oeste 0 -- -- 76
2020-05-06 20:00:00 21.1 0 Calma 7 Sur 0 -- -- 68
2020-05-06 19:00:00 23.1 4 Sudeste 14 Este 0 -- -- 57
2020-05-06 18:00:00 24.5 7 Este 25 Este 0 -- -- 49
2020-05-06 17:00:00 25.3 10 Este 20 Este 0 -- -- 46
2020-05-06 16:00:00 27.1 8 Este 22 Nordeste 0 -- -- 48
2020-05-06 15:00:00 25.5 11 Nordeste 25 Este 0 -- -- 46
2020-05-06 14:00:00 25.9 13 Nordeste 22 Nordeste 0 -- -- 46
2020-05-06 13:00:00 26.6 5 Sudeste 19 Nordeste 0 -- -- 43
2020-05-06 12:00:00 25.6 5 Nordeste 14 Nordeste 0 -- -- 45
2020-05-06 11:00:00 23.2 2 Sudeste 5 Noroeste 0 -- -- 59
2020-05-06 10:00:00 18.5 3 Sudoeste 6 Oeste 0 -- -- 77
2020-05-06 09:00:00 15 2 Noroeste 8 Sudoeste 0 -- -- 100
2020-05-06 08:00:00 11.9 4 Oeste 6 Sudoeste 0 -- -- 100
2020-05-06 07:00:00 11.3 2 Oeste 5 Oeste 0 -- -- 100
2020-05-06 06:00:00 11.7 2 Oeste 4 Noroeste 0 -- -- 99
2020-05-06 05:00:00 12.1 0 Calma 3 Noroeste 0 -- -- 98
2020-05-06 04:00:00 12.8 0 Calma 3 Oeste 0 -- -- 98
2020-05-06 03:00:00 13.4 0 Calma 2 Oeste 0 -- -- 98
2020-05-06 02:00:00 14.2 0 Calma 4 Oeste 0 -- -- 96
2020-05-06 01:00:00 15 0 Calma 3 Noroeste 0 -- -- 96
2020-05-06 00:00:00 15.8 0 Calma 4 Sudoeste 0 -- -- 95
2020-05-05 23:00:00 16.9 0 Calma 4 Nordeste 0 -- -- 93
2020-05-05 22:00:00 18.2 0 Calma 4 Sudoeste 0 -- -- 88
2020-05-05 21:00:00 19.9 0 Calma 11 Sudeste 0 -- -- 81
2020-05-05 20:00:00 21 6 Sudeste 14 Este 0 -- -- 78
2020-05-05 19:00:00 22.1 6 Sudeste 11 Este 0 -- -- 73
2020-05-05 18:00:00 23 6 Este 17 Nordeste 0 -- -- 70
2020-05-05 17:00:00 23.4 9 Este 18 Este 0 -- -- 64
2020-05-05 16:00:00 23.9 9 Este 19 Nordeste 0 -- -- 60
2020-05-05 15:00:00 24.6 5 Este 21 Este 0 -- -- 58
2020-05-05 14:00:00 24.4 10 Este 20 Este 0 -- -- 57
2020-05-05 13:00:00 24.1 9 Este 19 Nordeste 0 -- -- 56
2020-05-05 12:00:00 23.8 9 Este 21 Sudeste 0 -- -- 61
2020-05-05 11:00:00 22.3 10 Este 23 Este 0 -- -- 63
2020-05-05 10:00:00 19.8 9 Este 20 Este 0 -- -- 64
2020-05-05 09:00:00 16.5 0 Calma 5 Oeste 0 -- -- 79
2020-05-05 08:00:00 14.3 0 Calma 8 Sudoeste 0 -- -- 79
2020-05-05 07:00:00 14.1 2 Sudoeste 9 Noroeste 0 -- -- 75
2020-05-05 06:00:00 14.8 5 Oeste 14 Oeste 0 -- -- 72
2020-05-05 05:00:00 15.4 5 Oeste 9 Sudoeste 0 -- -- 70
2020-05-05 04:00:00 17.9 4 Sur 13 Oeste 0 -- -- 58
2020-05-05 03:00:00 19.6 9 Oeste 18 Oeste 0 -- -- 51
2020-05-05 02:00:00 18.8 10 Sudoeste 19 Oeste 0 -- -- 57
2020-05-05 01:00:00 16.6 2 Sudoeste 10 Oeste 0 -- -- 79
2020-05-05 00:00:00 17.6 0 Calma 8 Sudeste 0 -- -- 76
2020-05-04 23:00:00 19.1 2 Sudeste 9 Sudoeste 0 -- -- 69
2020-05-04 22:00:00 21 2 Sudoeste 8 Nordeste 0 -- -- 64
2020-05-04 21:00:00 22.8 0 Calma 19 Sudoeste 0 -- -- 58
2020-05-04 20:00:00 26 6 Sur 21 Sudoeste 0 -- -- 47
2020-05-04 19:00:00 28.4 5 Sudoeste 24 Sudoeste 0 -- -- 44
2020-05-04 18:00:00 28.2 6 Este 19 Nordeste 0 -- -- 50
2020-05-04 17:00:00 27.8 9 Este 22 Este 0 -- -- 53
2020-05-04 16:00:00 27.6 10 Este 21 Este 0 -- -- 53
2020-05-04 15:00:00 27.1 10 Este 26 Este 0 -- -- 52
2020-05-04 14:00:00 26.7 10 Este 24 Este 0 -- -- 57
2020-05-04 13:00:00 26.2 9 Este 19 Nordeste 0 -- -- 54
2020-05-04 12:00:00 25.8 3 Nordeste 8 Nordeste 0 -- -- 49
2020-05-04 11:00:00 22.3 0 Calma 6 Oeste 0 -- -- 68
2020-05-04 10:00:00 17.4 0 Calma 6 Sudoeste 0 -- -- 88
2020-05-04 09:00:00 14 0 Calma 3 Oeste 0 -- -- 99
2020-05-04 08:00:00 11.5 2 Oeste 4 Noroeste 0 -- -- 100
2020-05-04 07:00:00 10.6 0 Calma 5 Noroeste 0 -- -- 99
2020-05-04 06:00:00 10.6 0 Calma 5 Noroeste 0 -- -- 98
2020-05-04 05:00:00 11.1 0 Calma 0 Calma 0 -- -- 99
2020-05-04 04:00:00 11.5 0 Calma 0 Calma 0 -- -- 98
2020-05-04 03:00:00 12.1 0 Calma 0 Calma 0 -- -- 97
2020-05-04 02:00:00 12.8 0 Calma 0 Calma 0 -- -- 96
2020-05-04 01:00:00 13.5 0 Calma 0 Calma 0 -- -- 95
2020-05-04 00:00:00 14.4 0 Calma 3 Noroeste 0 -- -- 93
2020-05-03 23:00:00 15.6 0 Calma 3 Norte 0 -- -- 89
2020-05-03 22:00:00 17.1 0 Calma 6 Oeste 0 -- -- 84
2020-05-03 21:00:00 19.4 0 Calma 12 Este 0 -- -- 75
2020-05-03 20:00:00 21.1 8 Este 19 Nordeste 0 -- -- 66
2020-05-03 19:00:00 22.2 10 Este 28 Este 0 -- -- 64
2020-05-03 18:00:00 23.6 14 Este 33 Este 0 -- -- 60
2020-05-03 17:00:00 24.7 17 Este 32 Nordeste 0 -- -- 56
2020-05-03 16:00:00 25.9 10 Este 20 Nordeste 0 -- -- 52
2020-05-03 15:00:00 25.1 10 Este 24 Este 0 -- -- 55
2020-05-03 14:00:00 25.4 8 Este 19 Este 0 -- -- 52
2020-05-03 13:00:00 24.4 7 Nordeste 18 Nordeste 0 -- -- 55
2020-05-03 12:00:00 24.2 5 Este 10 Este 0 -- -- 49
2020-05-03 11:00:00 21.2 3 Este 5 Nordeste 0 -- -- 73
2020-05-03 10:00:00 16.1 2 Noroeste 5 Este 0 -- -- 92
2020-05-03 09:00:00 13.5 4 Noroeste 6 Noroeste 0 -- -- 100
2020-05-03 08:00:00 11.2 0 Calma 5 Oeste 0 -- -- 100
2020-05-03 07:00:00 10.7 3 Oeste 5 Oeste 0 -- -- 100
2020-05-03 06:00:00 11 3 Oeste 6 Oeste 0 -- -- 99
2020-05-03 05:00:00 11.6 3 Oeste 4 Oeste 0 -- -- 99
2020-05-03 04:00:00 12.2 2 Oeste 4 Oeste 0 -- -- 99
2020-05-03 03:00:00 12.8 0 Calma 4 Oeste 0 -- -- 98
2020-05-03 02:00:00 13.8 0 Calma 4 Sudoeste 0 -- -- 97
2020-05-03 01:00:00 15 2 Noroeste 4 Oeste 0 -- -- 96
2020-05-03 00:00:00 16.1 0 Calma 4 Noroeste 0 -- -- 95
2020-05-02 23:00:00 16.5 2 Sudoeste 10 Noroeste 0 -- -- 94
2020-05-02 22:00:00 16.9 0 Calma 6 Sudoeste 0.2 -- -- 93
2020-05-02 21:00:00 17.3 2 Sur 12 Sudoeste 0.2 -- -- 91
2020-05-02 20:00:00 19.1 4 Nordeste 11 Sudeste 0 -- -- 78
2020-05-02 19:00:00 21.1 9 Este 21 Este 0 -- -- 65
2020-05-02 18:00:00 23.6 4 Este 20 Nordeste 0 -- -- 59
2020-05-02 17:00:00 22.9 3 Sur 17 Este 0 -- -- 64
2020-05-02 16:00:00 23.9 7 Nordeste 19 Este 0 -- -- 58
2020-05-02 15:00:00 21.5 6 Este 17 Este 0 -- -- 67
2020-05-02 14:00:00 22.5 15 Este 29 Nordeste 0 -- -- 61
2020-05-02 13:00:00 23.3 13 Este 22 Este 0 -- -- 60
2020-05-02 12:00:00 23.1 6 Este 13 Este 0 -- -- 59
2020-05-02 11:00:00 20.9 2 Este 6 Nordeste 0 -- -- 70
2020-05-02 10:00:00 15.3 2 Oeste 5 Oeste 0 -- -- 100
2020-05-02 09:00:00 12.4 3 Noroeste 6 Noroeste 0 -- -- 100
2020-05-02 08:00:00 10.8 3 Oeste 5 Oeste 0 -- -- 100
2020-05-02 07:00:00 11.1 3 Sudoeste 5 Oeste 0.2 -- -- 100
2020-05-02 06:00:00 11.5 0 Calma 7 Oeste 0 -- -- 100
2020-05-02 05:00:00 11.7 0 Calma 10 Oeste 0 -- -- 100
2020-05-02 04:00:00 12.2 0 Calma 3 Noroeste 0 -- -- 99
2020-05-02 03:00:00 12.2 3 Sudoeste 5 Oeste 0 -- -- 99
2020-05-02 02:00:00 12.6 0 Calma 4 Norte 0 -- -- 98
2020-05-02 01:00:00 13 0 Calma 4 Norte 0 -- -- 98
2020-05-02 00:00:00 13.7 0 Calma 3 Noroeste 0 -- -- 97
2020-05-01 23:00:00 14.7 0 Calma 5 Oeste 0 -- -- 96
2020-05-01 22:00:00 15.5 2 Sudoeste 5 Oeste 0 -- -- 95
2020-05-01 21:00:00 16.6 2 Oeste 5 Sur 0 -- -- 92
2020-05-01 20:00:00 18 2 Sudeste 5 Sudoeste 0 -- -- 89
2020-05-01 19:00:00 20.1 3 Oeste 5 Oeste 0 -- -- 77
2020-05-01 18:00:00 19.5 2 Noroeste 8 Oeste 0 -- -- 74
2020-05-01 17:00:00 17.7 3 Sudoeste 11 Sudoeste 3.4 -- -- 93
2020-05-01 16:00:00 19.4 3 Noroeste 16 Sudeste 0.2 -- -- 76
2020-05-01 15:00:00 19.5 10 Este 28 Norte 0 -- -- 67
2020-05-01 14:00:00 26.3 4 Sudoeste 13 Noroeste 0 -- -- 41
2020-05-01 13:00:00 24.9 3 Sudoeste 9 Sudoeste 0 -- -- 45
2020-05-01 12:00:00 23.2 4 Sudoeste 9 Oeste 0 -- -- 43
2020-05-01 11:00:00 21.1 2 Sudeste 13 Este 0 -- -- 50
2020-05-01 10:00:00 17.4 2 Norte 6 Oeste 0 -- -- 58
2020-05-01 09:00:00 15.1 3 Sudoeste 9 Sur 0 -- -- 69
2020-05-01 08:00:00 10.2 4 Sudoeste 8 Oeste 0 -- -- 95
2020-05-01 07:00:00 7.8 5 Oeste 10 Oeste 0 -- -- 96
2020-05-01 06:00:00 7.9 0 Calma 9 Oeste 0 -- -- 95
2020-05-01 05:00:00 8.3 2 Oeste 10 Noroeste 0 -- -- 96
2020-05-01 04:00:00 8.5 3 Sudeste 6 Nordeste 0 -- -- 98
2020-05-01 03:00:00 8 2 Sur 5 Oeste 0 -- -- 98
2020-05-01 02:00:00 8.8 4 Sudoeste 5 Sudoeste 0 -- -- 97
2020-05-01 01:00:00 9.3 0 Calma 4 Noroeste 0 -- -- 95
2020-05-01 00:00:00 10.4 0 Calma 3 Sudeste 0 -- -- 94
2020-04-30 23:00:00 11.5 0 Calma 4 Noroeste 0 -- -- 91
2020-04-30 22:00:00 12.9 0 Calma 3 Sur 0 -- -- 85
2020-04-30 21:00:00 15.2 0 Calma 4 Sudeste 0 -- -- 78
2020-04-30 20:00:00 17 2 Sudeste 10 Este 0 -- -- 72
2020-04-30 19:00:00 17.8 6 Este 10 Este 0 -- -- 67
2020-04-30 18:00:00 17.5 6 Nordeste 17 Nordeste 0 -- -- 68
2020-04-30 17:00:00 17.8 10 Este 28 Este 0 -- -- 66
2020-04-30 16:00:00 19.3 11 Este 31 Nordeste 0 -- -- 63
2020-04-30 15:00:00 20.3 12 Nordeste 28 Nordeste 0 -- -- 54
2020-04-30 14:00:00 22.9 13 Sudoeste 25 Sudoeste 0 -- -- 39
2020-04-30 13:00:00 22.3 7 Sudeste 19 Sur 0 -- -- 38
2020-04-30 12:00:00 21.2 9 Sur 23 Sudeste 0 -- -- 42
2020-04-30 11:00:00 17.7 10 Sur 20 Sudeste 0 -- -- 55
2020-04-30 10:00:00 15.8 9 Sur 18 Sur 0 -- -- 59
2020-04-30 09:00:00 15.2 5 Sudoeste 19 Sur 0 -- -- 58
2020-04-30 08:00:00 15.7 12 Sur 30 Sudoeste 0 -- -- 56
2020-04-30 07:00:00 17 14 Sudoeste 34 Oeste 0 -- -- 45
2020-04-30 06:00:00 16.8 13 Oeste 32 Sudoeste 0 -- -- 51
2020-04-30 05:00:00 16.7 19 Sudoeste 35 Sudoeste 0 -- -- 54
2020-04-30 04:00:00 10.1 3 Oeste 13 Oeste 0 -- -- 88
2020-04-30 03:00:00 10 4 Oeste 13 Oeste 0 -- -- 90
2020-04-30 02:00:00 10.2 6 Oeste 10 Oeste 0 -- -- 91
2020-04-30 01:00:00 11.6 4 Oeste 7 Oeste 0 -- -- 87
2020-04-30 00:00:00 12.3 0 Calma 10 Oeste 0 -- -- 85
2020-04-29 23:00:00 13 0 Calma 10 Noroeste 0 -- -- 81
2020-04-29 22:00:00 14.7 0 Calma 5 Este 0 -- -- 72
2020-04-29 21:00:00 16.3 3 Nordeste 18 Sudoeste 0 -- -- 64
2020-04-29 20:00:00 19.7 9 Sudoeste 24 Oeste 0 -- -- 48
2020-04-29 19:00:00 20.8 15 Oeste 31 Sudoeste 0 -- -- 46
2020-04-29 18:00:00 22.3 11 Oeste 28 Sudoeste 0 -- -- 43
2020-04-29 17:00:00 22 10 Oeste 22 Oeste 0 -- -- 46
2020-04-29 16:00:00 20.8 4 Oeste 16 Oeste 0 -- -- 44
2020-04-29 15:00:00 19.6 6 Sudoeste 22 Sudoeste 0 -- -- 47
2020-04-29 14:00:00 19.5 3 Norte 25 Sudoeste 0 -- -- 47
2020-04-29 13:00:00 20.1 4 Noroeste 17 Nordeste 0 -- -- 44
2020-04-29 12:00:00 18.5 5 Norte 13 Este 0 -- -- 51
2020-04-29 11:00:00 16.8 4 Nordeste 10 Nordeste 0 -- -- 58
2020-04-29 10:00:00 12.5 2 Nordeste 6 Nordeste 0 -- -- 90
2020-04-29 09:00:00 9.1 0 Calma 7 Oeste 0 -- -- 100
2020-04-29 08:00:00 6.7 4 Oeste 5 Oeste 0 -- -- 100
2020-04-29 07:00:00 5.9 3 Oeste 7 Sudoeste 0 -- -- 100
2020-04-29 06:00:00 6.1 3 Oeste 6 Oeste 0 -- -- 99
2020-04-29 05:00:00 6.5 4 Oeste 6 Sudoeste 0 -- -- 99
2020-04-29 04:00:00 6.9 0 Calma 4 Noroeste 0 -- -- 98
2020-04-29 03:00:00 7.5 2 Sudoeste 4 Sudoeste 0 -- -- 98
2020-04-29 02:00:00 8 0 Calma 4 Oeste 0 -- -- 97
2020-04-29 01:00:00 8.6 0 Calma 3 Norte 0 -- -- 96
2020-04-29 00:00:00 9.6 0 Calma 4 Sudeste 0 -- -- 94
2020-04-28 23:00:00 10.7 0 Calma 5 Oeste 0 -- -- 91
2020-04-28 22:00:00 12.2 0 Calma 8 Este 0 -- -- 84
2020-04-28 21:00:00 14 4 Este 14 Este 0 -- -- 74
2020-04-28 20:00:00 15.1 6 Sudeste 19 Nordeste 0 -- -- 72
2020-04-28 19:00:00 15.8 9 Este 23 Este 0 -- -- 75
2020-04-28 18:00:00 16.6 11 Este 35 Este 0 -- -- 74
2020-04-28 17:00:00 17.2 16 Este 30 Este 0 -- -- 73
2020-04-28 16:00:00 19.3 10 Este 23 Sudeste 0 -- -- 65
2020-04-28 15:00:00 18.7 3 Sudeste 17 Este 0 -- -- 55
2020-04-28 14:00:00 19.5 8 Sudoeste 22 Sudoeste 0 -- -- 54
2020-04-28 13:00:00 18.7 12 Sudoeste 28 Oeste 0 -- -- 56
2020-04-28 12:00:00 17.6 7 Oeste 20 Oeste 0 -- -- 68
2020-04-28 11:00:00 16.6 3 Sudeste 9 Nordeste 0 -- -- 66
2020-04-28 10:00:00 13.3 0 Calma 6 Sudoeste 0 -- -- 96
2020-04-28 09:00:00 11.4 2 Noroeste 6 Oeste 0 -- -- 99
2020-04-28 08:00:00 10.7 0 Calma 4 Oeste 0 -- -- 99
2020-04-28 07:00:00 10.9 2 Sudoeste 7 Sudoeste 0 -- -- 98
2020-04-28 06:00:00 11.7 0 Calma 8 Sudeste 0.2 -- -- 97
2020-04-28 05:00:00 12.4 0 Calma 7 Sudeste 0 -- -- 97
2020-04-28 04:00:00 12.6 3 Este 9 Sudeste 0.4 -- -- 97
2020-04-28 03:00:00 12.6 0 Calma 5 Sudeste 0 -- -- 96
2020-04-28 02:00:00 12.6 0 Calma 5 Noroeste 0 -- -- 95
2020-04-28 01:00:00 12.9 2 Sudeste 9 Sudoeste 0 -- -- 94
2020-04-28 00:00:00 12.9 3 Oeste 11 Sudoeste 0 -- -- 93